Pagrindinis puslapis
METAR-TAF:

METAR-TAF

Oro uostai :

Albertus Airport

Freeport, Ilinojus, Jungtinės Amerikos Valstijos

platuma: 42-14-47N, ilguma: 089-34-56W, Aukštis: 262 m

Dabartinis oras

Ataskaita buvo paskelbta 12 minutes, ne 19:55 UTC
Vėjas 14 kt iš Pietvakarių su gūsio iki 17 kt
Temperatūra 31°C
Drėgmė 52%
Slėgis 1011 hPa
Matomumas: 16.1 km
Giedras dangus

METAR: KFEP 021955Z AUTO 23014G17KT 10SM CLR 31/20 A2986 RMK AO2 T03110196

Laikas: 15:07 (20:07 UTC)


TAF: trūkstamas

Orai ataskaitas ir orų prognozės (METAR, TAF).

turimą stotys yra geltonos ir raudonos taškus žemėlapyje.

Perkelti pele per norėdami pamatyti stoties vardą.

Tada spustelėkite, norėdami matyti oro stebėjimo ir prognozės.

Norėdami pakeisti žemėlapį: spustelėkite ant žalios mygtukų su juodo kryžiaus žemyn,; žalią mygtuką su brūkšneliu, jei norite nutolinti; arba žalių rodyklių gretimoms žemėlapius.


METAR-TAF: